Terminal Aerodrome Forecast
Issued by NWS Duluth, MN

Home | Current Version | Previous Version | Text Only | Print | Product List | Glossary On
Versions: 1 2 3 4 5 6 7 8 9 10 11 12 13 14 15 16 17 18
000
FTUS43 KDLH 210523
TAFDLH
TAF
KDLH 210523Z 2106/2206 32015G25KT P6SM SKC
     FM210830 33013G20KT P6SM BKN050
     FM211400 33012G20KT P6SM SCT060
     FM220000 36009KT P6SM SKC=

USA.gov is the U.S. government's official web portal to all federal, state and local government web resources and services.